Friendswood, TX

9:59 PM CDT on April 28, 2017 (GMT -0500)
Clover | | Change Station
Active Advisory: Coastal Flood Advisory Active Notice: Coastal Flood Advisory

Elev 43 ft 29.52 °N, 95.24 °W | Updated 6 minutes ago

Haze
Haze
82 °F
Feels Like 89 °F
N
14
Wind Variable Wind from SSE

Today
High -- | Low -- °F
--% Chance of Precip.
Yesterday
High -- | Low -- °F
Precip. -- in
Pressure 29.72 in
Visibility 6.0 miles
Clouds Mostly Cloudy 1300 ft
Overcast 2100 ft
Heat Index 89 °F
Dew Point 75 °F
Humidity 79%
Rainfall 0.00 in
Snow Depth Not available.
6:41 AM 7:55 PM
Waxing Crescent, 10% visible
METAR KLVJ 290253Z AUTO 16012KT 6SM HZ BKN013 OVC021 28/24 A2972 RMK AO2 SLP064 T02780239 53018
Pressure 29.72 in
Visibility 6.0 miles
Clouds Mostly Cloudy 1300 ft
Overcast 2100 ft
Heat Index 89 °F
Dew Point 75 °F
Humidity 79%
Rainfall 0.00 in
Snow Depth Not available.
6:41 AM 7:55 PM
Waxing Crescent, 10% visible
METAR KLVJ 290253Z AUTO 16012KT 6SM HZ BKN013 OVC021 28/24 A2972 RMK AO2 SLP064 T02780239 53018

Get Your Daily Forecast Email!

Thanks for signing up!

Be on the lookout for a verification email in your inbox.

You'll start receiving severe weather alerts in your inbox..

×

10-Day Weather Forecast

Almanac

Astronomy

Apr. 28, 2017 Rise Set
Actual Time
Civil Twilight
Nautical Twilight
Astronomical Twilight
Moon
Length of Visible Light
Length of Day
Tomorrow will be .
, % of the Moon is Illuminated

Today's Extremes

State Highs State Lows

Community

WunderPhotos

WunderBlog® & News

Nearby

Air Quality

  Air Quality AQ Index Pollutant
Not available.

Snow Depth

Station Depth Elevation

Earthquake Activity

City Distance Mag. Time & Date
Minimum magnitude displayed is 2.5.

Coastal Water Temperatures

Place Temperature

Stations

Nearby Weather Stations

Station Location Temp. Windchill Dew Point Humidity Wind Precip. Elev Updated Type
                   

Watches & Warnings

Coastal Flood Advisory
Issued: 9:18 PM CDT Apr. 28, 2017 – National Weather Service

... Coastal flood advisory in effect from 4 am to noon CDT
Saturday...

The National Weather Service in Houston/Galveston has issued a
coastal flood advisory, which is in effect from 4 am to noon CDT
Saturday. The coastal Flood Watch is no longer in effect.

* Coastal flooding... observed water levels may reach 3.8 to 4.2 feet
with additional higher wave run up due to high surf.

* Timing... late tonight through around noon Saturday centered
around times of high tide.

* Impacts... water levels may overcome dunes and possibly
overwash low-lying areas and roadways along Bolivar Peninsula,
the west end of Galveston Island, the Blue Water Highway, and
beach drive near Surfside. Wave run up will make camping and
driving on the beach hazardous. Rip currents will be strong.

Precautionary/preparedness actions...

A coastal flood advisory indicates that onshore winds and tides
will combine to generate flooding of low areas along the shore.